Lake Worth, FL (33460)

12:29 PM EDT on August 31, 2015 (GMT -0400)
Lake Clarke Shores - Caribbean Rd. East | | Change Station
CLOSE
Current Station
Personal Weather Station
Location: Lake Clarke Shores, FL
Elevation: 16 ft
Nearby Weather Stations

Elev 16 ft 26.63 °N, 80.07 °W | Updated 2 seconds ago

Mostly Cloudy
Mostly Cloudy
95.9 °F
Feels Like 114 °F
N
10.5
Wind Variable Wind from South
Gusts 10.5 mph

Today
High -- | Low -- °F
--% Chance of Precip.
Yesterday
High -- | Low -- °F
Precip. -- in
6:59 AM 7:41 PM
Waning Gibbous, 95% visible
Pressure 30.07 in
Visibility 10.0 miles
Clouds Scattered Clouds 2700 ft
Mostly Cloudy 3500 ft
Mostly Cloudy 25000 ft
Heat Index 114 °F
Dew Point 79 °F
Humidity 58%
Rainfall 1.99 in
Snow Depth Not available.
UV 7 out of 12
Pollen .60 out of 12
Air Quality Not available.
Flu Activity Not available.
METAR KPBI 311553Z 13014KT 10SM SCT027 BKN035 BKN250 31/24 A3007 RMK AO2 SLP181 T03060239 $
Pressure 30.07 in
Visibility 10.0 miles
Clouds Scattered Clouds 2700 ft
Mostly Cloudy 3500 ft
Mostly Cloudy 25000 ft
Heat Index 114 °F
Dew Point 79 °F
Humidity 58%
Rainfall 1.99 in
Snow Depth Not available.
UV 7 out of 12
Pollen .60 out of 12
Air Quality Not available.
Flu Activity Not available.
METAR KPBI 311553Z 13014KT 10SM SCT027 BKN035 BKN250 31/24 A3007 RMK AO2 SLP181 T03060239 $

10-Day Weather Forecast

×

Almanac

Astronomy

Aug. 31, 2015 Rise Set
Actual Time
Civil Twilight
Nautical Twilight
Astronomical Twilight
Moon
Length of Visible Light
Length of Day
Tomorrow will be .
, % of the Moon is Illuminated

Today's Extremes

State Highs State Lows

Community

WunderPhotos

Upload Photos

1,851,302 photos uploaded!

WunderBlogs® & News

Nearby

Air Quality

  Air Quality AQ Index Pollutant
Not available.

Snow Depth

Station Depth Elevation

Earthquake Activity

City Distance Mag. Time & Date
Minimum magnitude displayed is 2.5.

Coastal Water Temperatures

Place Temperature

Stations

Nearby Weather Stations

Station Location Temp. Windchill Dew Point Humidity Wind Precip. Elev Updated Type